Belmont, TX (78604)

4:46 AM CDT on October 26, 2014 (GMT -0500)
Saltcreek Ranch | Change Station
CLOSE
Current Station
Personal Weather Station
Location: Seguin, TX
Elevation: 466 ft
Nearby Weather Stations

Elev 466 ft 29.53 °N, 97.83 °W | Updated 6 minutes ago

Clear
Clear
61.5 °F
Feels Like 61.5 °F
N
0.0
Wind Variable Wind from WNW
Gusts 0.0 mph

Today
High -- | Low -- °F
--% Chance of Precip.
Yesterday
High -- | Low -- °F
Precip. -- in
7:39 AM 6:49 PM
Waxing Crescent, 7% visible
Pressure 30.05 in
Visibility 7.0 miles
Clouds Clear
Dew Point 60 °F
Humidity 96%
Rainfall 0.00 in
Snow Depth Not available.
UV 0 out of 12
Pollen 6.10 out of 12
Air Quality Not available.
Flu Activity Not available.
METAR KT20 260935Z AUTO 00000KT 7SM CLR 17/16 A3005 RMK AO2 T01680162

More Conditions Fewer Conditions

Pressure 30.05 in
Visibility 7.0 miles
Clouds Clear
Dew Point 60 °F
Humidity 96%
Rainfall 0.00 in
Snow Depth Not available.
UV 0 out of 12
Pollen 6.10 out of 12
Air Quality Not available.
Flu Activity Not available.
METAR KT20 260935Z AUTO 00000KT 7SM CLR 17/16 A3005 RMK AO2 T01680162

More Conditions Fewer Conditions

10-Day Weather Forecast

Almanac

Astronomy

Oct. 26, 2014 Rise Set
Actual Time 7:39 AM CDT 6:49 PM CDT
Civil Twilight 7:15 AM CDT 7:13 PM CDT
Nautical Twilight 6:47 AM CDT 7:41 PM CDT
Astronomical Twilight 6:19 AM CDT 8:09 PM CDT
Moon 10:11 AM CDT 9:10 PM CDT
Length of Visible Light 11h 58m
Length of Day
11h 09m
Tomorrow will be 1m 37s shorter.
Waxing Crescent, 7% of the Moon is Illuminated
Today
Waxing Crescent
Oct 30
First Quarter
Nov 6
Full
Nov 14
Last Quarter
Nov 22
New

Today's Extremes

State Highs State Lows

Community

WunderPhotos

Upload Photos

1,765,132 photos uploaded!

Nearby

Snow Depth

Station Depth Elevation
No new snow has been reported.

Earthquake Activity

City Distance Mag. Time & Date
No recent earthquake activity has been reported nearby.
Minimum magnitude displayed is 2.5.

Coastal Water Temperatures

Place Temperature
No Stations Reporting

Nearby Weather Stations